createdAt,value
2017-10-19T00:01:39.564Z,99.90
2017-10-19T00:04:45.104Z,99.90
2017-10-19T00:07:50.921Z,99.90
2017-10-19T00:10:58.552Z,99.90
2017-10-19T00:14:03.448Z,99.90
2017-10-19T00:17:12.088Z,99.90
2017-10-19T00:20:32.716Z,99.90
2017-10-19T00:23:38.417Z,99.90
2017-10-19T00:26:43.947Z,99.90
2017-10-19T00:29:49.660Z,99.90
2017-10-19T00:33:15.172Z,99.90
2017-10-19T00:36:19.907Z,99.90
2017-10-19T00:39:24.816Z,99.90
2017-10-19T00:42:31.553Z,99.90
2017-10-19T00:45:37.177Z,99.90
2017-10-19T00:48:42.051Z,99.90
2017-10-19T00:51:48.972Z,99.90
2017-10-19T00:54:54.685Z,99.90
2017-10-19T00:57:59.665Z,99.90
2017-10-19T01:01:06.342Z,99.90
2017-10-19T01:04:12.035Z,99.90
2017-10-19T01:07:17.904Z,99.90
2017-10-19T01:10:24.591Z,99.90
2017-10-19T01:13:52.764Z,99.90
2017-10-19T01:16:58.468Z,99.90
2017-10-19T01:20:13.313Z,99.90
2017-10-19T01:23:18.116Z,99.90
2017-10-19T01:26:29.849Z,99.90
2017-10-19T01:29:39.483Z,99.90
2017-10-19T01:32:45.160Z,99.90
2017-10-19T01:35:52.932Z,99.90
2017-10-19T01:39:01.661Z,99.90
2017-10-19T01:42:17.292Z,99.90
2017-10-19T01:45:22.911Z,99.90
2017-10-19T01:48:33.708Z,99.90
2017-10-19T01:51:43.353Z,99.90
2017-10-19T01:54:52.045Z,99.90
2017-10-19T01:57:58.933Z,99.90
2017-10-19T02:04:40.320Z,99.90
2017-10-19T02:07:45.058Z,99.90
2017-10-19T02:10:50.705Z,99.90
2017-10-19T02:13:59.705Z,99.90
2017-10-19T02:17:08.504Z,99.90
2017-10-19T02:20:14.277Z,99.90
2017-10-19T02:23:22.831Z,99.90
2017-10-19T02:26:40.468Z,99.90
2017-10-19T02:29:45.127Z,99.90
2017-10-19T02:32:49.944Z,99.90
2017-10-19T02:36:03.793Z,99.90
2017-10-19T02:39:22.597Z,99.90
2017-10-19T02:42:28.277Z,99.90
2017-10-19T02:45:40.767Z,99.90
2017-10-19T02:48:46.337Z,99.90
2017-10-19T02:51:54.063Z,99.90
2017-10-19T02:55:02.627Z,99.90
2017-10-19T02:58:08.248Z,99.90
2017-10-19T03:01:20.929Z,99.90
2017-10-19T03:04:26.687Z,99.90
2017-10-19T03:07:33.408Z,99.90
2017-10-19T03:17:24.248Z,99.90
2017-10-19T03:20:31.025Z,99.90
2017-10-19T03:23:45.688Z,99.90
2017-10-19T03:26:59.584Z,99.90
2017-10-19T03:30:11.193Z,99.90
2017-10-19T03:33:26.807Z,99.90
2017-10-19T03:36:33.500Z,99.90
2017-10-19T03:39:38.951Z,99.90
2017-10-19T03:42:44.406Z,99.90
2017-10-19T03:45:50.118Z,99.90
2017-10-19T03:48:55.656Z,99.90
2017-10-19T03:52:01.164Z,99.90
2017-10-19T03:55:14.787Z,99.90
2017-10-19T03:58:20.327Z,99.90
2017-10-19T04:01:25.888Z,99.90
2017-10-19T04:04:46.688Z,99.90
2017-10-19T04:07:52.396Z,99.90
2017-10-19T04:10:57.927Z,99.90
2017-10-19T04:14:19.729Z,99.90
2017-10-19T04:17:26.481Z,99.90
2017-10-19T04:20:32.168Z,99.90
2017-10-19T04:23:45.756Z,99.90
2017-10-19T04:26:51.428Z,99.90
2017-10-19T04:29:57.094Z,99.90
2017-10-19T04:33:08.535Z,99.90
2017-10-19T04:36:13.291Z,99.90
2017-10-19T04:39:24.044Z,99.90
2017-10-19T04:42:29.715Z,99.90
2017-10-19T04:45:41.533Z,99.90
2017-10-19T04:48:46.331Z,99.90
2017-10-19T04:51:52.136Z,99.90
2017-10-19T04:55:03.787Z,99.90
2017-10-19T04:58:08.781Z,99.90
2017-10-19T05:01:13.523Z,99.90
2017-10-19T05:04:19.400Z,99.90
2017-10-19T05:07:30.225Z,99.90
2017-10-19T05:10:35.945Z,99.90
2017-10-19T05:13:43.775Z,99.90
2017-10-19T05:16:48.617Z,99.90
2017-10-19T05:19:54.353Z,99.90
2017-10-19T05:23:01.148Z,99.90
2017-10-19T05:26:14.044Z,99.90
2017-10-19T05:29:21.729Z,99.90
2017-10-19T05:32:32.598Z,99.90
2017-10-19T05:35:42.340Z,99.90
2017-10-19T05:38:47.204Z,99.90
2017-10-19T05:41:52.740Z,99.90
2017-10-19T05:45:03.569Z,99.90
2017-10-19T05:48:11.203Z,99.90
2017-10-19T05:51:17.060Z,99.90
2017-10-19T05:54:29.701Z,99.90
2017-10-19T05:57:34.334Z,99.90
2017-10-19T06:00:46.977Z,99.90
2017-10-19T06:03:52.553Z,99.90
2017-10-19T06:06:59.439Z,99.90
2017-10-19T06:10:06.120Z,99.90
2017-10-19T06:13:11.706Z,99.90
2017-10-19T06:16:35.392Z,99.90
2017-10-19T06:19:41.880Z,99.90
2017-10-19T06:22:47.478Z,99.90
2017-10-19T06:25:52.135Z,99.90
2017-10-19T06:28:57.561Z,99.90
2017-10-19T06:32:03.160Z,99.90
2017-10-19T06:35:09.789Z,99.90
2017-10-19T06:38:15.463Z,99.90
2017-10-19T06:41:21.239Z,99.90
2017-10-19T06:44:27.042Z,99.90
2017-10-19T06:47:31.660Z,99.90
2017-10-19T06:50:36.500Z,99.90
2017-10-19T06:53:42.186Z,99.90
2017-10-19T06:56:47.904Z,99.90
2017-10-19T06:59:55.780Z,99.90
2017-10-19T07:03:00.460Z,99.90
2017-10-19T07:06:20.433Z,99.90
2017-10-19T07:09:25.160Z,99.90
2017-10-19T07:12:29.936Z,99.90
2017-10-19T07:15:34.808Z,99.90
2017-10-19T07:18:40.824Z,99.90
2017-10-19T07:21:46.827Z,99.90
2017-10-19T07:24:54.596Z,99.90
2017-10-19T07:28:21.659Z,99.90
2017-10-19T07:31:38.439Z,99.90
2017-10-19T07:34:42.965Z,99.90
2017-10-19T07:37:48.392Z,99.90
2017-10-19T07:40:53.088Z,99.90
2017-10-19T07:44:04.708Z,99.90
2017-10-19T07:47:09.380Z,99.90
2017-10-19T07:50:25.976Z,99.90
2017-10-19T07:53:30.683Z,99.90
2017-10-19T07:56:35.655Z,99.90
2017-10-19T07:59:41.136Z,99.90
2017-10-19T08:02:45.877Z,99.90
2017-10-19T08:05:50.519Z,99.90
2017-10-19T08:08:56.348Z,99.90
2017-10-19T08:12:01.112Z,99.90
2017-10-19T08:15:06.007Z,99.90
2017-10-19T08:18:10.823Z,99.90
2017-10-19T08:21:15.516Z,99.90
2017-10-19T08:24:21.218Z,99.90
2017-10-19T08:27:26.792Z,99.90
2017-10-19T08:30:40.718Z,99.90
2017-10-19T08:33:46.246Z,99.90
2017-10-19T08:36:51.971Z,99.90
2017-10-19T08:40:09.640Z,99.90
2017-10-19T08:43:15.616Z,99.90
2017-10-19T08:46:21.310Z,99.90
2017-10-19T08:49:29.944Z,99.90
2017-10-19T08:52:49.548Z,99.90
2017-10-19T08:55:57.127Z,99.90
2017-10-19T08:59:02.553Z,99.90
2017-10-19T09:02:09.136Z,99.90
2017-10-19T09:05:17.639Z,99.90
2017-10-19T09:08:24.243Z,99.90
2017-10-19T09:11:30.842Z,99.90
2017-10-19T09:14:36.707Z,99.90
2017-10-19T09:17:41.318Z,99.90
2017-10-19T09:20:48.181Z,99.90
2017-10-19T09:23:53.029Z,99.90
2017-10-19T09:26:58.949Z,99.90
2017-10-19T09:30:10.594Z,99.90
2017-10-19T09:33:16.340Z,99.50
2017-10-19T09:36:21.110Z,99.50
2017-10-19T09:39:27.715Z,99.90
2017-10-19T09:42:33.345Z,97.60
2017-10-19T09:45:45.140Z,96.80
2017-10-19T09:48:50.963Z,96.80
2017-10-19T09:51:56.617Z,96.20
2017-10-19T09:55:02.062Z,96.10
2017-10-19T09:58:06.640Z,96.60
2017-10-19T10:01:12.100Z,96.40
2017-10-19T10:04:22.918Z,95.60
2017-10-19T10:07:39.622Z,95.30
2017-10-19T10:10:45.122Z,95.30
2017-10-19T10:13:55.719Z,94.90
2017-10-19T10:17:04.560Z,94.50
2017-10-19T10:23:42.096Z,93.70
2017-10-19T10:26:59.050Z,93.40
2017-10-19T10:30:04.821Z,92.30
2017-10-19T10:33:10.398Z,92.20
2017-10-19T10:36:15.049Z,93.00
2017-10-19T10:39:26.602Z,92.80
2017-10-19T10:42:32.186Z,93.30
2017-10-19T10:45:36.893Z,91.80
2017-10-19T10:48:49.647Z,91.70
2017-10-19T10:51:54.328Z,92.00
2017-10-19T10:55:10.176Z,92.00
2017-10-19T10:58:15.904Z,91.50
2017-10-19T11:01:22.536Z,92.70
2017-10-19T11:07:58.196Z,92.70
2017-10-19T11:11:05.726Z,92.60
2017-10-19T11:17:58.224Z,92.90
2017-10-19T11:21:08.689Z,92.90
2017-10-19T11:27:28.189Z,93.90
2017-10-19T11:30:37.701Z,93.90
2017-10-19T11:33:42.436Z,93.60
2017-10-19T11:36:48.052Z,92.70
2017-10-19T11:39:59.019Z,92.40
2017-10-19T11:43:03.813Z,92.50
2017-10-19T11:46:10.524Z,92.10
2017-10-19T11:49:15.235Z,92.10
2017-10-19T11:52:20.064Z,92.30
2017-10-19T11:55:25.647Z,92.70
2017-10-19T11:58:30.529Z,92.10
2017-10-19T12:01:35.379Z,91.70
2017-10-19T12:04:41.231Z,91.90
2017-10-19T12:07:46.152Z,91.70
2017-10-19T12:10:50.928Z,91.30
2017-10-19T12:13:55.921Z,90.40
2017-10-19T12:17:01.505Z,90.50
2017-10-19T12:20:09.339Z,90.80
2017-10-19T12:23:14.049Z,89.30
2017-10-19T12:26:20.855Z,87.40
2017-10-19T12:29:26.423Z,88.80
2017-10-19T12:32:32.421Z,87.90
2017-10-19T12:35:37.104Z,89.20
2017-10-19T12:38:42.941Z,87.30
2017-10-19T12:41:56.740Z,82.20
2017-10-19T12:45:03.402Z,82.70
2017-10-19T12:48:12.212Z,81.40
2017-10-19T12:51:18.075Z,81.80
2017-10-19T12:54:23.588Z,84.20
2017-10-19T12:57:30.492Z,83.40
2017-10-19T13:00:37.588Z,80.70
2017-10-19T13:03:55.981Z,81.90
2017-10-19T13:07:01.764Z,80.10
2017-10-19T13:10:06.521Z,79.20
2017-10-19T13:13:17.508Z,77.20
2017-10-19T13:16:27.411Z,78.20
2017-10-19T13:19:32.336Z,77.30
2017-10-19T13:22:37.105Z,77.30
2017-10-19T13:25:42.715Z,73.80
2017-10-19T13:28:48.309Z,74.70
2017-10-19T13:31:59.213Z,74.70
2017-10-19T13:35:05.812Z,73.40
2017-10-19T13:38:10.431Z,74.20
2017-10-19T13:41:17.088Z,74.20
2017-10-19T13:44:22.575Z,72.30
2017-10-19T13:47:29.140Z,73.00
2017-10-19T13:50:49.653Z,72.80
2017-10-19T13:53:59.491Z,73.90
2017-10-19T13:57:04.240Z,74.00
2017-10-19T14:00:08.963Z,73.20
2017-10-19T14:03:13.583Z,73.40
2017-10-19T14:06:18.474Z,74.60
2017-10-19T14:09:23.296Z,75.50
2017-10-19T14:12:30.106Z,74.90
2017-10-19T14:15:49.761Z,74.70
2017-10-19T14:18:54.512Z,75.30
2017-10-19T14:22:01.316Z,75.70
2017-10-19T14:25:06.140Z,76.30
2017-10-19T14:28:11.671Z,76.10
2017-10-19T14:31:28.772Z,76.10
2017-10-19T14:38:06.448Z,78.30
2017-10-19T14:41:17.212Z,78.10
2017-10-19T14:44:22.884Z,78.60
2017-10-19T14:47:30.729Z,78.90
2017-10-19T14:50:40.748Z,78.40
2017-10-19T14:54:01.208Z,78.70
2017-10-19T14:57:16.757Z,77.80
2017-10-19T15:00:25.343Z,77.00
2017-10-19T15:03:36.311Z,77.30
2017-10-19T15:06:44.691Z,77.70
2017-10-19T15:09:50.488Z,77.70
2017-10-19T15:12:59.101Z,76.80
2017-10-19T15:16:04.989Z,77.30
2017-10-19T15:19:11.800Z,78.70
2017-10-19T15:22:16.513Z,78.70
2017-10-19T15:25:40.418Z,80.40
2017-10-19T15:28:47.057Z,81.00
2017-10-19T15:31:51.797Z,81.00
2017-10-19T15:35:03.334Z,82.20
2017-10-19T15:38:09.241Z,82.90
2017-10-19T15:48:04.382Z,85.10
2017-10-19T15:51:23.031Z,89.20
2017-10-19T15:54:35.799Z,91.40
2017-10-19T15:57:48.609Z,93.70
2017-10-19T16:00:56.145Z,95.30
2017-10-19T16:04:02.945Z,96.70
2017-10-19T16:07:12.171Z,97.40
2017-10-19T16:10:19.295Z,98.50
2017-10-19T16:13:24.903Z,99.70
2017-10-19T16:16:30.576Z,99.90
2017-10-19T16:19:35.258Z,99.90
2017-10-19T16:22:40.806Z,99.90
2017-10-19T16:26:04.708Z,99.90
2017-10-19T16:29:19.209Z,99.90
2017-10-19T16:32:29.735Z,99.90
2017-10-19T16:35:39.432Z,99.90
2017-10-19T16:38:51.188Z,99.90
2017-10-19T16:41:57.115Z,99.90
2017-10-19T16:45:03.832Z,99.90
2017-10-19T16:48:09.624Z,99.90
2017-10-19T16:54:55.543Z,99.90
2017-10-19T16:58:09.392Z,99.90
2017-10-19T17:01:14.988Z,99.90
2017-10-19T17:04:33.549Z,99.90
2017-10-19T17:07:46.403Z,99.90
2017-10-19T17:10:53.171Z,99.90
2017-10-19T17:14:01.885Z,99.90
2017-10-19T17:17:17.859Z,99.90
2017-10-19T17:20:26.428Z,99.90
2017-10-19T17:23:38.116Z,99.90
2017-10-19T17:27:03.181Z,99.90
2017-10-19T17:30:07.656Z,99.90
2017-10-19T17:33:13.341Z,99.90
2017-10-19T17:36:24.892Z,99.90
2017-10-19T17:39:44.793Z,99.90
2017-10-19T17:42:49.237Z,99.90
2017-10-19T17:45:54.012Z,99.90
2017-10-19T17:49:01.027Z,99.90
2017-10-19T17:52:06.063Z,99.90
2017-10-19T17:55:13.804Z,99.90
2017-10-19T17:58:18.516Z,99.90
2017-10-19T18:01:28.113Z,99.90
2017-10-19T18:04:35.729Z,99.90
2017-10-19T18:07:43.654Z,99.90
2017-10-19T18:10:54.233Z,99.90
2017-10-19T18:13:59.093Z,99.90
2017-10-19T18:17:06.596Z,99.90
2017-10-19T18:20:12.151Z,99.90
2017-10-19T18:23:22.273Z,99.90
2017-10-19T18:26:29.053Z,99.90
2017-10-19T18:29:54.822Z,99.90
2017-10-19T18:33:05.376Z,99.90
2017-10-19T18:36:10.548Z,99.90
2017-10-19T18:39:15.604Z,99.90
2017-10-19T18:42:20.406Z,99.90
2017-10-19T18:45:26.360Z,99.90
2017-10-19T18:48:30.952Z,99.90
2017-10-19T18:51:35.640Z,99.90
2017-10-19T18:54:52.479Z,99.90
2017-10-19T18:57:58.132Z,99.90
2017-10-19T19:01:06.908Z,99.90
2017-10-19T19:04:12.589Z,99.90
2017-10-19T19:07:18.322Z,99.90
2017-10-19T19:10:29.098Z,99.90
2017-10-19T19:17:06.651Z,99.90
2017-10-19T19:20:11.491Z,99.90
2017-10-19T19:23:17.109Z,99.90
2017-10-19T19:26:31.875Z,99.90
2017-10-19T19:29:38.457Z,99.90
2017-10-19T19:32:54.122Z,99.90
2017-10-19T19:36:00.711Z,99.90
2017-10-19T19:39:06.345Z,99.90
2017-10-19T19:42:12.139Z,99.90
2017-10-19T19:48:54.517Z,99.90
2017-10-19T19:51:59.309Z,99.90
2017-10-19T19:55:09.773Z,99.90
2017-10-19T19:58:15.600Z,99.90
2017-10-19T20:01:22.289Z,99.90
2017-10-19T20:04:27.916Z,99.90
2017-10-19T20:07:33.429Z,99.90
2017-10-19T20:10:54.247Z,99.90
2017-10-19T20:14:11.948Z,99.90
2017-10-19T20:20:54.446Z,99.90
2017-10-19T20:24:06.008Z,99.90
2017-10-19T20:27:10.761Z,99.90
2017-10-19T20:30:15.472Z,99.90
2017-10-19T20:33:21.542Z,99.90
2017-10-19T20:36:39.455Z,99.90
2017-10-19T20:39:49.066Z,99.90
2017-10-19T20:43:00.794Z,99.90
2017-10-19T20:46:06.389Z,99.90
2017-10-19T20:49:12.144Z,99.90
2017-10-19T20:52:17.720Z,99.90
2017-10-19T20:55:27.532Z,99.90
2017-10-19T20:58:33.228Z,99.90
2017-10-19T21:01:38.869Z,99.90
2017-10-19T21:04:50.861Z,99.90
2017-10-19T21:08:02.828Z,99.90
2017-10-19T21:11:08.545Z,99.90
2017-10-19T21:14:17.191Z,99.90
2017-10-19T21:17:22.124Z,99.90
2017-10-19T21:20:32.890Z,99.90
2017-10-19T21:23:39.709Z,99.90
2017-10-19T21:26:44.653Z,99.90
2017-10-19T21:29:49.616Z,99.90
2017-10-19T21:32:54.668Z,99.90
2017-10-19T21:36:07.883Z,99.90
2017-10-19T21:39:20.769Z,99.90
2017-10-19T21:42:25.570Z,99.90
2017-10-19T21:45:43.240Z,99.90
2017-10-19T21:48:48.713Z,99.90
2017-10-19T21:51:56.313Z,99.90
2017-10-19T21:55:01.912Z,99.90
2017-10-19T21:58:10.584Z,99.90
2017-10-19T22:01:19.364Z,99.90
2017-10-19T22:04:24.825Z,99.90
2017-10-19T22:07:32.694Z,99.90
2017-10-19T22:10:40.350Z,99.90
2017-10-19T22:13:51.160Z,99.90
2017-10-19T22:16:56.957Z,99.90
2017-10-19T22:20:05.684Z,99.90
2017-10-19T22:23:15.499Z,99.90
2017-10-19T22:26:21.984Z,99.90
2017-10-19T22:29:28.512Z,99.90
2017-10-19T22:36:15.825Z,99.90
2017-10-19T22:39:21.544Z,99.90
2017-10-19T22:42:27.146Z,99.90
2017-10-19T22:45:33.936Z,99.90
2017-10-19T22:48:41.760Z,99.90
2017-10-19T22:51:47.383Z,99.90
2017-10-19T22:54:54.964Z,99.90
2017-10-19T22:58:12.689Z,99.90
2017-10-19T23:01:34.532Z,99.90
2017-10-19T23:04:40.084Z,99.90
2017-10-19T23:07:44.681Z,99.90
2017-10-19T23:10:52.343Z,99.90
2017-10-19T23:13:57.007Z,99.90
2017-10-19T23:17:04.838Z,99.90
2017-10-19T23:20:15.765Z,99.90
2017-10-19T23:23:20.490Z,99.90
2017-10-19T23:26:37.172Z,99.90
2017-10-19T23:29:51.773Z,99.90
2017-10-19T23:33:04.358Z,99.90
2017-10-19T23:36:10.011Z,99.90
2017-10-19T23:39:19.728Z,99.90
2017-10-19T23:42:25.444Z,99.90
2017-10-19T23:45:31.960Z,99.90
2017-10-19T23:48:36.781Z,99.90
2017-10-19T23:51:48.321Z,99.90
2017-10-19T23:54:58.134Z,99.90
2017-10-19T23:58:08.752Z,99.90
